Pagrindinis puslapis
METAR-TAF:

METAR-TAF

Oro uostai :

Abu Dabis, Jungtiniai Arabų Emyratai

platuma: 24-26N, ilguma: 054-28E, Aukštis: 5 m

Dabartinis oras

Ataskaita buvo paskelbta 49 minutes, ne 13:00 UTC
Vėjas 10 kt iš Šiaurės/Šiaurės Vakarų
Temperatūra 29°C
Drėgmė 45%
Slėgis 1007 hPa
Matomumas 10 km arba daugiau
nėra debesų žemiau 1500 m ir nėra kamuolinių lietaus debesų

METAR: OMAD 201300Z 34010KT CAVOK 29/16 Q1007 NOSIG

Laikas: 17:49 (13:49 UTC)

Prognozė

Ataskaita buvo paskelbta 2 valandos ir 49 minutes, ne 11:00 UTC
Prognozė galioja nuo 20 metu 12 UTC su 21 metu 18 UTC
Vėjas 11 kt iš Šiaurės/Šiaurės Vakarų
Matomumas: 8000 m
Tapsmas
nuo 20 metu 17 UTC su 20 metu 19 UTC
Vėjas 5 kt iš Rytų/Šiaurės Rytų
Tikimybė 30%
nuo 21 metu 01 UTC su 21 metu 04 UTC
Matomumas: 4000 m
migla
Tapsmas
nuo 21 metu 08 UTC su 21 metu 10 UTC
Vėjas 11 kt iš Šiaurės/Šiaurės Vakarų

TAF: OMAD 201100Z 2012/2118 34011KT 8000 NSC BECMG 2017/2019 07005KT PROB30 2101/2104 4000 HZ BECMG 2108/2110 34011KT

Orai ataskaitas ir orų prognozės (METAR, TAF).

turimą stotys yra geltonos ir raudonos taškus žemėlapyje.

Perkelti pele per norėdami pamatyti stoties vardą.

Tada spustelėkite, norėdami matyti oro stebėjimo ir prognozės.

Norėdami pakeisti žemėlapį: spustelėkite ant žalios mygtukų su juodo kryžiaus žemyn,; žalią mygtuką su brūkšneliu, jei norite nutolinti; arba žalių rodyklių gretimoms žemėlapius.


METAR-TAF: